CheckWX is a tool to help pilots better visualize weather data.  It is not intended as a substitute for an official pre-flight weather briefing.

16:31:41 UTC

LIPX TAF
Verona Villafranca Airport
Verona, Italy
TAF LIPX 261400Z 2615/2624 09006KT CAVOK

Mar-26@
15:00 UTC

Mar-26 @ 15:00 UTC

Mar-27@
00:00 UTC

Mar-27 @ 00:00 UTC

TAF LIPX 261400Z 2615/2624 09006KT CAVOK
Wind
  • 090° at 6 KTS
Conditions
No significant weather
Cloud Levels
  • No significant clouds